Time;durP1;ratioP1;P1;durP2;ratioP2;P2;SDS_P1;SDS_P2;PMS_P1;PMS_P2;Temp;Humidity;BMP_temperature;BMP_pressure;BME280_temperature;BME280_humidity;BME280_pressure;Samples;Min_cycle;Max_cycle;Signal;HPM_P1;HPM_P2
2021/03/28 00:02:09;;;;;;;;;;;;;;;17.22;67.55;101932.81;5029876;28;1483;-57
2021/03/28 00:04:44;;;;;;;;;;;;;;;17.19;68.01;101927.63;5014150;28;1675;-56
2021/03/28 00:07:10;;;;;;;;;;;;;;;17.21;66.77;101931.06;5033731;28;1497;-56
2021/03/28 00:09:35;;;;;;;;;;;;;;;17.17;66.84;101933.09;5031256;28;1512;-57
2021/03/28 00:12:04;;;;;;;;;;;;;;;17.18;67.73;101944.63;5027502;28;1973;-56
2021/03/28 00:14:38;;;;;;;;;;;;;;;17.15;67.23;101936.78;5034347;28;1664;-57
2021/03/28 00:17:06;;;;;;;;;;;;;;;17.16;67.04;101934.03;5033866;28;1371;-57
2021/03/28 00:19:33;;;;;;;;;;;;;;;17.13;67.68;101920.00;5032736;28;1473;-57
2021/03/28 00:22:00;;;;;;;;;;;;;;;17.15;67.30;101931.44;5034021;28;1654;-57
2021/03/28 00:24:35;;;;;;;;;;;;;;;17.15;66.92;101934.13;5033542;28;1410;-57
2021/03/28 00:27:07;;;;;;;;;;;;;;;17.12;67.67;101923.63;5034536;28;1572;-57
2021/03/28 00:29:45;;;;;;;;;;;;;;;17.11;67.06;101930.81;5033332;28;1542;-58
2021/03/28 00:32:15;;;;;;;;;;;;;;;17.12;67.71;101921.81;5034129;28;1893;-57
2021/03/28 00:34:42;;;;;;;;;;;;;;;17.06;67.70;101928.41;5033713;28;1486;-57
2021/03/28 00:37:07;;;;;;;;;;;;;;;17.13;67.01;101922.66;5032713;28;1727;-57
2021/03/28 00:39:51;;;;;;;;;;;;;;;17.08;67.35;101918.47;5032814;28;1631;-57
2021/03/28 00:42:22;;;;;;;;;;;;;;;17.12;67.45;101942.34;5031020;28;1559;-57
2021/03/28 00:44:50;;;;;;;;;;;;;;;17.08;66.69;101928.31;5033676;28;1671;-56
2021/03/28 00:47:20;;;;;;;;;;;;;;;17.07;66.50;101930.13;5033263;28;1567;-57
2021/03/28 00:49:47;;;;;;;;;;;;;;;17.07;66.00;101919.44;5032048;28;1458;-56
2021/03/28 00:52:15;;;;;;;;;;;;;;;17.07;67.22;101923.94;5032401;28;1886;-57
2021/03/28 00:54:41;;;;;;;;;;;;;;;17.07;66.93;101931.94;5033728;28;1675;-58
2021/03/28 00:57:19;;;;;;;;;;;;;;;17.06;67.58;101925.72;5034541;28;1365;-57
2021/03/28 01:00:03;;;;;;;;;;;;;;;17.03;66.59;101928.59;5027514;28;1457;-57
2021/03/28 01:02:32;;;;;;;;;;;;;;;17.04;66.44;101929.44;5033050;28;1434;-57
2021/03/28 01:05:00;;;;;;;;;;;;;;;17.04;66.22;101921.44;5033100;28;1512;-57
2021/03/28 01:07:38;;;;;;;;;;;;;;;17.00;66.20;101915.41;5032742;28;1512;-58
2021/03/28 01:10:22;;;;;;;;;;;;;;;17.00;66.08;101912.75;5033311;28;1704;-57
2021/03/28 01:12:50;;;;;;;;;;;;;;;17.00;66.77;101918.09;5032470;28;1910;-58
2021/03/28 01:15:38;;;;;;;;;;;;;;;17.00;67.15;101918.09;5033967;28;1422;-57
2021/03/28 01:18:09;;;;;;;;;;;;;;;16.99;67.05;101910.16;5031811;28;1310;-56
2021/03/28 01:20:37;;;;;;;;;;;;;;;16.98;66.89;101913.81;5033229;28;1517;-57
2021/03/28 01:23:29;;;;;;;;;;;;;;;16.98;67.14;101920.00;5033203;28;1671;-56
2021/03/28 01:26:06;;;;;;;;;;;;;;;16.96;66.34;101919.22;5030864;28;1354;-57
2021/03/28 01:28:43;;;;;;;;;;;;;;;16.93;66.23;101908.75;5033250;28;1691;-58
2021/03/28 01:31:20;;;;;;;;;;;;;;;16.92;66.16;101912.34;5026588;28;1544;-57
2021/03/28 01:33:52;;;;;;;;;;;;;;;16.92;66.89;101919.53;5033087;28;1976;-57
2021/03/28 01:36:38;;;;;;;;;;;;;;;16.92;66.88;101912.34;5033025;28;1664;-57
2021/03/28 01:39:18;;;;;;;;;;;;;;;16.90;66.89;101928.47;5028592;28;1459;-57
2021/03/28 01:41:49;;;;;;;;;;;;;;;16.91;67.28;101940.03;5033339;28;1513;-57
2021/03/28 01:44:30;;;;;;;;;;;;;;;16.89;66.60;101925.88;5030948;28;1477;-57
2021/03/28 01:47:14;;;;;;;;;;;;;;;16.90;66.83;101932.97;5031299;28;1612;-56
2021/03/28 01:49:51;;;;;;;;;;;;;;;16.87;66.65;101922.44;5033068;28;1581;-58
2021/03/28 01:52:29;;;;;;;;;;;;;;;16.88;66.37;101932.19;5032857;28;1954;-58
2021/03/28 01:54:54;;;;;;;;;;;;;;;16.88;67.24;101932.19;5033430;28;1417;-57
2021/03/28 01:57:22;;;;;;;;;;;;;;;16.88;65.82;101929.53;5033883;28;717;-57
2021/03/28 02:02:57;;;;;;;;;;;;;;;16.87;66.61;101927.78;4369282;26;2605;-46
2021/03/28 02:05:41;;;;;;;;;;;;;;;16.85;67.00;101919.91;5069791;28;1649;-46
2021/03/28 02:08:19;;;;;;;;;;;;;;;16.88;66.38;101918.84;5065197;28;1912;-45
2021/03/28 02:11:11;;;;;;;;;;;;;;;16.87;66.69;101927.78;5073692;22;3707;-58
2021/03/28 02:13:55;;;;;;;;;;;;;;;16.89;66.76;101917.88;4980843;28;1906;-57
2021/03/28 02:16:25;;;;;;;;;;;;;;;16.87;65.49;101927.78;5004098;28;1593;-57
2021/03/28 02:18:50;;;;;;;;;;;;;;;16.82;66.62;101917.41;5009520;28;1467;-57
2021/03/28 02:21:31;;;;;;;;;;;;;;;16.81;66.33;101923.72;5002325;28;1534;-57
2021/03/28 02:23:59;;;;;;;;;;;;;;;16.79;66.50;101922.03;5011025;28;1367;-57
2021/03/28 02:26:31;;;;;;;;;;;;;;;16.82;66.87;101932.56;5011498;28;1612;-57
2021/03/28 02:28:59;;;;;;;;;;;;;;;16.75;66.36;101916.03;4998568;28;1737;-57
2021/03/28 02:31:34;;;;;;;;;;;;;;;16.78;67.27;101929.19;5007697;28;1313;-58
2021/03/28 02:34:18;;;;;;;;;;;;;;;16.74;67.68;101932.16;4985333;28;1890;-57
2021/03/28 02:36:56;;;;;;;;;;;;;;;16.70;66.48;101910.09;5009310;28;1443;-57
2021/03/28 02:39:26;;;;;;;;;;;;;;;16.72;67.39;101932.22;5003794;28;1343;-57
2021/03/28 02:42:10;;;;;;;;;;;;;;;16.74;67.43;101932.16;5007641;28;1474;-58
2021/03/28 02:44:49;;;;;;;;;;;;;;;16.74;66.64;101937.50;5010393;28;1731;-57
2021/03/28 02:47:17;;;;;;;;;;;;;;;16.74;67.28;101937.50;5006311;28;1729;-58
2021/03/28 02:49:45;;;;;;;;;;;;;;;16.72;65.99;101923.38;5007778;28;1434;-58
2021/03/28 02:52:14;;;;;;;;;;;;;;;16.71;66.33;101935.84;5005624;28;1898;-57
2021/03/28 02:55:02;;;;;;;;;;;;;;;16.68;66.28;101939.56;5011037;28;1430;-57
2021/03/28 02:57:30;;;;;;;;;;;;;;;16.68;66.25;101939.56;4998252;28;1354;-57
2021/03/28 03:00:14;;;;;;;;;;;;;;;16.69;66.01;101951.97;4997877;28;1614;-57
2021/03/28 03:02:57;;;;;;;;;;;;;;;16.68;66.24;101936.91;5002666;28;1562;-57
2021/03/28 03:05:26;;;;;;;;;;;;;;;16.69;66.78;101938.63;5006525;28;1660;-58
2021/03/28 03:07:57;;;;;;;;;;;;;;;16.70;66.07;101956.34;5002067;28;1490;-57
2021/03/28 03:10:23;;;;;;;;;;;;;;;16.67;66.70;101937.88;4984252;28;619997;-57
2021/03/28 03:12:48;;;;;;;;;;;;;;;16.67;66.40;101947.66;5012432;28;1918;-57
2021/03/28 03:15:23;;;;;;;;;;;;;;;16.65;67.19;101945.09;5007282;28;1406;-57
2021/03/28 03:18:07;;;;;;;;;;;;;;;16.64;66.39;101948.72;5012781;28;1350;-57
2021/03/28 03:20:51;;;;;;;;;;;;;;;16.65;67.10;101949.56;5005724;28;1354;-57
2021/03/28 03:23:22;;;;;;;;;;;;;;;16.68;67.46;101958.25;5008048;28;1311;-57
2021/03/28 03:26:06;;;;;;;;;;;;;;;16.63;67.09;101960.38;5012825;28;1621;-58
2021/03/28 03:28:47;;;;;;;;;;;;;;;16.65;66.88;101954.91;5010792;28;1461;-57
2021/03/28 03:31:21;;;;;;;;;;;;;;;16.62;66.08;101961.28;5001519;28;1365;-57
2021/03/28 03:33:49;;;;;;;;;;;;;;;16.64;66.07;101966.56;5010023;28;1902;-57
2021/03/28 03:36:17;;;;;;;;;;;;;;;16.62;66.22;101957.78;5010368;28;1409;-57
2021/03/28 03:38:58;;;;;;;;;;;;;;;16.60;65.95;101976.56;5012272;28;1494;-57
2021/03/28 03:41:40;;;;;;;;;;;;;;;16.60;66.33;101973.88;5010536;28;1323;-57
2021/03/28 03:44:19;;;;;;;;;;;;;;;16.60;66.50;101968.53;5007161;28;1461;-57
2021/03/28 03:46:56;;;;;;;;;;;;;;;16.58;66.07;101974.94;5005732;28;1549;-57
2021/03/28 03:49:36;;;;;;;;;;;;;;;16.59;66.30;101972.19;5009899;28;1597;-57
2021/03/28 03:52:20;;;;;;;;;;;;;;;16.62;66.33;101980.00;5003488;28;1971;-57
2021/03/28 03:55:01;;;;;;;;;;;;;;;16.59;66.92;101982.88;5010435;28;1445;-57
2021/03/28 03:57:40;;;;;;;;;;;;;;;16.60;66.03;101973.88;5008990;28;1319;-57
2021/03/28 04:00:17;;;;;;;;;;;;;;;16.63;65.55;101978.19;5008094;28;1371;-57
2021/03/28 04:03:01;;;;;;;;;;;;;;;16.66;65.90;101984.19;5009461;28;1665;-57
2021/03/28 04:05:26;;;;;;;;;;;;;;;16.73;65.77;101997.19;5011104;28;1537;-60
2021/03/28 04:07:54;;;;;;;;;;;;;;;16.72;67.28;101996.34;5009272;28;1609;-61
2021/03/28 04:10:55;;;;;;;;;;;;;;;16.70;67.04;101991.09;5009625;28;1489;-63
2021/03/28 04:13:39;;;;;;;;;;;;;;;16.75;67.66;102001.50;4970720;28;1910;-69
2021/03/28 04:16:11;;;;;;;;;;;;;;;16.76;67.51;101989.88;5006616;28;1474;-67
2021/03/28 04:18:54;;;;;;;;;;;;;;;16.80;66.42;102009.25;5003703;28;1383;-60
2021/03/28 04:21:28;;;;;;;;;;;;;;;16.81;66.88;102008.28;5009859;28;1616;-61
2021/03/28 04:24:12;;;;;;;;;;;;;;;16.76;66.21;102000.56;5003343;28;1331;-66
2021/03/28 04:26:48;;;;;;;;;;;;;;;16.75;66.07;101993.50;5011695;28;1804;-68
2021/03/28 04:29:14;;;;;;;;;;;;;;;16.76;65.63;102005.88;5010213;28;1581;-60
2021/03/28 04:31:52;;;;;;;;;;;;;;;16.77;65.76;102012.09;5008340;28;1435;-67
2021/03/28 04:34:38;;;;;;;;;;;;;;;16.75;65.17;102027.34;5002473;28;1627;-62
2021/03/28 04:37:09;;;;;;;;;;;;;;;16.87;65.69;102010.63;5009269;28;1493;-62
2021/03/28 04:39:55;;;;;;;;;;;;;;;16.98;65.40;102013.53;5010475;28;1552;-59
2021/03/28 04:42:39;;;;;;;;;;;;;;;17.45;63.55;102017.81;5002394;28;1551;-66
2021/03/28 04:45:04;;;;;;;;;;;;;;;18.18;61.34;102003.38;5004520;28;1732;-67
2021/03/28 04:47:56;;;;;;;;;;;;;;;18.60;60.28;102011.38;5007759;28;1727;-59
2021/03/28 04:50:40;;;;;;;;;;;;;;;18.79;59.54;101998.50;4984585;28;1738;-66
2021/03/28 04:53:38;;;;;;;;;;;;;;;18.41;60.19;102012.59;5010161;28;1898;-59
2021/03/28 04:56:09;;;;;;;;;;;;;;;17.52;63.75;102014.75;4975438;28;1519;-60
2021/03/28 04:58:49;;;;;;;;;;;;;;;17.17;63.80;102020.41;5007632;28;1541;-59
2021/03/28 05:01:33;;;;;;;;;;;;;;;16.94;65.74;102028.03;5009927;28;1637;-59
2021/03/28 05:04:04;;;;;;;;;;;;;;;16.90;65.95;102016.66;5010281;28;1518;-62
2021/03/28 05:06:42;;;;;;;;;;;;;;;16.92;66.08;102024.56;5009822;28;1503;-60
2021/03/28 05:09:25;;;;;;;;;;;;;;;16.93;65.92;102029.00;5007143;28;1323;-63
2021/03/28 05:11:54;;;;;;;;;;;;;;;16.99;64.83;102023.28;5010839;28;1914;-63
2021/03/28 05:14:37;;;;;;;;;;;;;;;17.04;65.83;102034.53;5011295;28;1417;-62
2021/03/28 05:17:03;;;;;;;;;;;;;;;17.15;65.60;102017.88;5007714;28;1430;-63
2021/03/28 05:19:47;;;;;;;;;;;;;;;17.30;64.39;102027.59;5006760;28;1530;-68
2021/03/28 05:22:31;;;;;;;;;;;;;;;17.47;64.24;102015.88;5006656;28;1303;-59
2021/03/28 05:24:56;;;;;;;;;;;;;;;18.19;62.33;102013.16;5008125;28;1397;-68
2021/03/28 05:27:40;;;;;;;;;;;;;;;19.34;59.30;102017.97;5011081;28;1265;-59
2021/03/28 05:30:22;;;;;;;;;;;;;;;19.20;59.46;102018.94;5004241;28;1862;-63
2021/03/28 05:33:00;;;;;;;;;;;;;;;19.17;59.15;102026.34;5007398;28;1910;-59
2021/03/28 05:35:25;;;;;;;;;;;;;;;19.25;58.74;102023.97;5017518;28;1521;-58
2021/03/28 05:38:04;;;;;;;;;;;;;;;19.54;58.01;102015.72;5012876;28;1414;-62
2021/03/28 05:40:41;;;;;;;;;;;;;;;19.49;57.84;102024.06;5011479;28;1392;-58
2021/03/28 05:43:24;;;;;;;;;;;;;;;19.21;58.68;102028.69;5001718;28;1245;-58
2021/03/28 05:46:05;;;;;;;;;;;;;;;18.68;60.21;102023.31;5009943;28;1193;-63
2021/03/28 05:48:30;;;;;;;;;;;;;;;18.34;61.05;102018.47;5010037;28;1191;-58
2021/03/28 05:51:06;;;;;;;;;;;;;;;18.20;61.96;102025.56;5010565;28;1471;-58
2021/03/28 05:53:46;;;;;;;;;;;;;;;18.13;62.72;102023.41;5014621;28;1921;-63
2021/03/28 05:56:31;;;;;;;;;;;;;;;18.12;62.49;102029.72;5013287;28;1850;-64
2021/03/28 05:58:56;;;;;;;;;;;;;;;18.10;62.35;102011.06;5011306;28;1454;-63
2021/03/28 06:01:30;;;;;;;;;;;;;;;18.14;62.17;102020.63;5012661;28;1523;-63
2021/03/28 06:04:14;;;;;;;;;;;;;;;18.08;62.64;102018.34;5007811;28;1349;-63
2021/03/28 06:06:45;;;;;;;;;;;;;;;18.07;62.49;102014.81;5008431;28;1552;-62
2021/03/28 06:09:19;;;;;;;;;;;;;;;18.08;63.17;102029.03;5008379;28;1458;-64
2021/03/28 06:11:50;;;;;;;;;;;;;;;18.02;63.39;102018.72;5009905;28;1438;-65
2021/03/28 06:14:32;;;;;;;;;;;;;;;18.04;63.20;102014.16;5011140;28;1975;-58
2021/03/28 06:17:03;;;;;;;;;;;;;;;18.06;62.90;102015.78;5012223;28;1432;-58
2021/03/28 06:19:47;;;;;;;;;;;;;;;18.07;62.97;102009.47;5012830;28;1481;-59
2021/03/28 06:22:31;;;;;;;;;;;;;;;18.13;63.40;102034.97;5008219;28;1637;-59
2021/03/28 06:25:15;;;;;;;;;;;;;;;18.26;62.41;102035.03;5005736;28;1549;-58
2021/03/28 06:27:58;;;;;;;;;;;;;;;18.29;63.01;102035.69;5008317;28;1478;-63
2021/03/28 06:30:35;;;;;;;;;;;;;;;18.37;62.92;102029.00;5011127;28;1474;-66
2021/03/28 06:33:09;;;;;;;;;;;;;;;18.41;62.80;102031.34;5013837;28;1890;-64
2021/03/28 06:35:53;;;;;;;;;;;;;;;18.47;63.17;102038.13;5005657;28;1475;-59
2021/03/28 06:38:38;;;;;;;;;;;;;;;18.34;64.11;102037.22;4314741;28;10000716;-58
2021/03/28 06:41:09;;;;;;;;;;;;;;;18.22;64.35;102034.41;5002610;28;1516;-57
2021/03/28 06:43:37;;;;;;;;;;;;;;;18.28;64.02;102050.06;5004752;28;1532;-60
2021/03/28 06:46:02;;;;;;;;;;;;;;;18.35;63.91;102046.97;5004198;28;1455;-61
2021/03/28 06:48:31;;;;;;;;;;;;;;;18.33;64.36;102040.88;5005073;28;1390;-65
2021/03/28 06:51:05;;;;;;;;;;;;;;;18.44;64.14;102047.25;5004576;28;1564;-61
2021/03/28 06:53:33;;;;;;;;;;;;;;;18.50;63.77;102048.63;5020144;28;2000;-61
2021/03/28 06:56:22;;;;;;;;;;;;;;;18.52;64.08;102037.81;5005532;28;1492;-60
2021/03/28 06:59:07;;;;;;;;;;;;;;;18.56;63.54;102033.97;4984238;28;1533;-58
2021/03/28 07:01:51;;;;;;;;;;;;;;;18.54;64.00;102052.81;5003530;28;1535;-62
2021/03/28 07:04:38;;;;;;;;;;;;;;;18.49;64.08;102049.59;5002467;28;1449;-65
2021/03/28 07:07:22;;;;;;;;;;;;;;;18.50;64.34;102051.31;5001466;28;1434;-59
2021/03/28 07:10:07;;;;;;;;;;;;;;;18.49;64.26;102044.25;5000357;28;1331;-55
2021/03/28 07:12:43;;;;;;;;;;;;;;;18.53;63.82;102050.28;5005030;28;1914;-57
2021/03/28 07:15:08;;;;;;;;;;;;;;;18.71;63.64;102050.88;5007470;28;1546;-61
2021/03/28 07:17:43;;;;;;;;;;;;;;;18.84;63.74;102049.09;5009843;28;1476;-58
2021/03/28 07:20:26;;;;;;;;;;;;;;;18.85;64.10;102050.81;5003505;28;1629;-59
2021/03/28 07:23:09;;;;;;;;;;;;;;;18.89;63.97;102057.69;5007851;28;1360;-61
2021/03/28 07:25:44;;;;;;;;;;;;;;;18.88;63.89;102045.28;5008306;28;1509;-60
2021/03/28 07:28:24;;;;;;;;;;;;;;;18.85;63.70;102056.19;5007435;28;1403;-64
2021/03/28 07:30:59;;;;;;;;;;;;;;;18.84;63.69;102062.50;5011294;28;1612;-67
2021/03/28 07:33:43;;;;;;;;;;;;;;;18.85;64.76;102057.03;5011372;28;2003;-56
2021/03/28 07:36:27;;;;;;;;;;;;;;;18.87;63.59;102075.72;5012289;28;1394;-60
2021/03/28 07:39:04;;;;;;;;;;;;;;;18.93;63.97;102069.94;5010203;28;1486;-68
2021/03/28 07:41:36;;;;;;;;;;;;;;;18.80;64.15;102058.31;5009509;28;1573;-58
2021/03/28 07:44:19;;;;;;;;;;;;;;;18.78;64.03;102070.91;5009103;28;1724;-68
2021/03/28 07:47:04;;;;;;;;;;;;;;;18.76;64.12;102059.44;5002473;28;1316;-65
2021/03/28 07:49:48;;;;;;;;;;;;;;;18.72;64.41;102076.69;5014274;28;1364;-67
2021/03/28 07:52:33;;;;;;;;;;;;;;;18.71;63.81;102064.25;5008089;28;1894;-59
2021/03/28 07:55:08;;;;;;;;;;;;;;;18.60;64.13;102063.16;5006484;28;1485;-69
2021/03/28 07:57:48;;;;;;;;;;;;;;;18.59;64.00;102069.47;5012833;28;1470;-58
2021/03/28 08:00:20;;;;;;;;;;;;;;;18.54;63.70;102068.91;5026524;28;1303;-58
2021/03/28 08:03:04;;;;;;;;;;;;;;;18.53;63.38;102080.59;5008861;28;1502;-69
2021/03/28 08:05:48;;;;;;;;;;;;;;;18.44;63.24;102074.03;5012714;28;1554;-58
2021/03/28 08:08:40;;;;;;;;;;;;;;;18.46;63.36;102084.63;5009932;28;1254;-58
2021/03/28 08:11:11;;;;;;;;;;;;;;;18.42;62.46;102075.94;4971514;28;1347;-69
2021/03/28 08:13:55;;;;;;;;;;;;;;;18.39;62.71;102077.94;5010154;28;1906;-68
2021/03/28 08:16:39;;;;;;;;;;;;;;;18.38;61.22;102084.25;5010075;28;1566;-65
2021/03/28 08:19:23;;;;;;;;;;;;;;;18.41;61.83;102068.84;5007596;28;1370;-58
2021/03/28 08:22:00;;;;;;;;;;;;;;;18.40;61.68;102074.31;5010681;28;1487;-58
2021/03/28 08:24:35;;;;;;;;;;;;;;;18.40;62.22;102076.97;5008229;28;1446;-58
2021/03/28 08:27:21;;;;;;;;;;;;;;;18.39;62.46;102069.91;5012200;28;1619;-68
2021/03/28 08:29:46;;;;;;;;;;;;;;;18.34;62.06;102067.53;5021077;28;1575;-68
2021/03/28 08:32:32;;;;;;;;;;;;;;;18.33;62.42;102062.28;5010901;28;1898;-69
2021/03/28 08:35:17;;;;;;;;;;;;;;;18.31;61.75;102066.88;5008659;28;1654;-65
2021/03/28 08:38:05;;;;;;;;;;;;;;;18.35;62.88;102073.75;5006510;28;1635;-69
2021/03/28 08:40:49;;;;;;;;;;;;;;;18.31;62.66;102061.53;5010211;28;1458;-69
2021/03/28 08:43:33;;;;;;;;;;;;;;;18.33;63.10;102071.16;5010437;28;1483;-69
2021/03/28 08:46:17;;;;;;;;;;;;;;;18.32;62.47;102053.38;5006860;28;1362;-58
2021/03/28 08:48:48;;;;;;;;;;;;;;;18.29;62.29;102058.94;5009760;28;1382;-58
2021/03/28 08:51:16;;;;;;;;;;;;;;;18.29;62.42;102061.63;5008760;28;1664;-68
2021/03/28 08:54:02;;;;;;;;;;;;;;;18.27;61.84;102048.31;5011769;28;1943;-66
2021/03/28 08:56:48;;;;;;;;;;;;;;;18.30;62.09;102049.94;5009843;28;1323;-58
2021/03/28 08:59:39;;;;;;;;;;;;;;;18.28;62.12;102047.38;5009364;28;1500;-58
2021/03/28 09:02:19;;;;;;;;;;;;;;;18.25;61.98;102044.03;5015416;28;1536;-69
2021/03/28 09:04:49;;;;;;;;;;;;;;;18.24;61.87;102051.22;5006341;28;1624;-68
2021/03/28 09:07:21;;;;;;;;;;;;;;;18.24;61.21;102042.31;5008986;28;1455;-58
2021/03/28 09:09:58;;;;;;;;;;;;;;;18.33;60.55;102040.88;5007720;28;1442;-65
2021/03/28 09:12:44;;;;;;;;;;;;;;;18.33;61.09;102048.91;5013139;28;1981;-58
2021/03/28 09:15:09;;;;;;;;;;;;;;;18.26;61.24;102033.22;5011521;28;1287;-58
2021/03/28 09:17:51;;;;;;;;;;;;;;;18.27;60.89;102045.66;5012948;28;1494;-57
2021/03/28 09:20:19;;;;;;;;;;;;;;;18.32;63.63;102055.19;5012267;28;1386;-69
2021/03/28 09:22:45;;;;;;;;;;;;;;;18.38;62.11;102041.41;5013428;28;1528;-58
2021/03/28 09:25:30;;;;;;;;;;;;;;;18.34;61.57;102030.03;5012939;28;1363;-57
2021/03/28 09:28:08;;;;;;;;;;;;;;;18.40;61.07;102034.13;4984297;28;1410;-58
2021/03/28 09:30:40;;;;;;;;;;;;;;;18.43;61.10;102058.91;5008018;28;1434;-58
2021/03/28 09:33:15;;;;;;;;;;;;;;;18.42;60.34;102048.28;5014142;28;1967;-55
2021/03/28 09:36:00;;;;;;;;;;;;;;;18.52;61.27;102045.84;5015164;28;1370;-67
2021/03/28 09:38:43;;;;;;;;;;;;;;;18.50;58.56;102037.91;5013031;28;1331;-68
2021/03/28 09:41:12;;;;;;;;;;;;;;;18.40;61.02;102042.16;5013402;28;1486;-58
2021/03/28 09:43:56;;;;;;;;;;;;;;;18.30;61.02;102031.19;5013577;28;1427;-68
2021/03/28 09:46:27;;;;;;;;;;;;;;;18.28;61.03;102031.31;5004755;28;1402;-58
2021/03/28 09:49:11;;;;;;;;;;;;;;;18.23;61.30;102022.72;5009297;28;1454;-58
2021/03/28 09:51:42;;;;;;;;;;;;;;;18.19;61.89;102023.88;5007127;28;1548;-69
2021/03/28 09:54:10;;;;;;;;;;;;;;;18.20;61.92;102009.50;5013288;28;1944;-64
2021/03/28 09:56:57;;;;;;;;;;;;;;;18.21;61.87;102024.63;5014411;28;1287;-69
2021/03/28 09:59:46;;;;;;;;;;;;;;;18.36;60.66;102028.09;5010927;28;1430;-65
2021/03/28 10:02:21;;;;;;;;;;;;;;;18.40;61.13;102028.78;5011320;28;1656;-57
2021/03/28 10:04:46;;;;;;;;;;;;;;;18.34;61.04;102034.53;5010429;28;1354;-57
2021/03/28 10:07:13;;;;;;;;;;;;;;;18.36;61.29;102032.63;5009536;28;1582;-63
2021/03/28 10:09:38;;;;;;;;;;;;;;;18.31;61.59;102016.00;5005223;28;1347;-69
2021/03/28 10:12:12;;;;;;;;;;;;;;;18.28;60.41;102025.97;5022541;28;1914;-59
2021/03/28 10:14:40;;;;;;;;;;;;;;;18.19;58.40;102015.84;5011659;28;1704;-58
2021/03/28 10:17:24;;;;;;;;;;;;;;;18.24;56.25;102008.38;5009310;28;1433;-67
2021/03/28 10:19:53;;;;;;;;;;;;;;;18.19;52.49;102026.53;5007026;28;1478;-66
2021/03/28 10:22:21;;;;;;;;;;;;;;;18.20;52.59;102028.25;5010912;28;1512;-58
2021/03/28 10:25:15;;;;;;;;;;;;;;;18.16;52.41;102024.06;5009073;28;1593;-66
2021/03/28 10:27:59;;;;;;;;;;;;;;;18.06;49.20;102013.09;5003081;28;1402;-66
2021/03/28 10:30:38;;;;;;;;;;;;;;;18.04;50.02;102012.31;5010476;28;1422;-58
2021/03/28 10:33:22;;;;;;;;;;;;;;;18.17;51.45;102011.56;5000682;28;1895;-59
2021/03/28 10:36:11;;;;;;;;;;;;;;;18.20;51.21;102006.81;5010747;28;1460;-60
2021/03/28 10:38:49;;;;;;;;;;;;;;;18.15;51.05;102018.81;5004542;28;1544;-61
2021/03/28 10:41:36;;;;;;;;;;;;;;;18.16;53.82;102013.34;5011788;28;1284;-58
2021/03/28 10:44:10;;;;;;;;;;;;;;;18.25;52.71;102006.56;5008689;28;1393;-57
2021/03/28 10:46:59;;;;;;;;;;;;;;;18.29;55.25;102008.06;5012666;28;1422;-57
2021/03/28 10:49:53;;;;;;;;;;;;;;;18.36;55.27;102000.47;4989681;28;1613;-60
2021/03/28 10:52:42;;;;;;;;;;;;;;;18.23;58.09;101995.94;4655215;28;9999745;-61
2021/03/28 10:55:13;;;;;;;;;;;;;;;18.25;57.20;101999.38;4961829;28;11024;-56
2021/03/28 10:57:38;;;;;;;;;;;;;;;18.21;59.62;101997.84;5005624;28;1457;-56
2021/03/28 11:00:22;;;;;;;;;;;;;;;18.13;59.34;101996.66;5000388;28;1679;-61
2021/03/28 11:02:50;;;;;;;;;;;;;;;18.10;59.83;101997.69;5002505;28;1500;-56
2021/03/28 11:05:15;;;;;;;;;;;;;;;18.06;59.62;101997.06;5001568;28;1549;-60
2021/03/28 11:08:01;;;;;;;;;;;;;;;18.05;59.39;101986.44;5001035;28;1389;-57
2021/03/28 11:10:32;;;;;;;;;;;;;;;18.04;59.59;101979.34;4991905;28;1540;-60
2021/03/28 11:13:22;;;;;;;;;;;;;;;18.00;59.33;101996.56;5004341;28;1930;-56
2021/03/28 11:16:06;;;;;;;;;;;;;;;18.00;59.26;101985.84;5003048;28;1425;-60
2021/03/28 11:18:40;;;;;;;;;;;;;;;17.99;59.52;102001.06;5001525;28;1467;-56
2021/03/28 11:21:22;;;;;;;;;;;;;;;18.01;59.81;102006.31;4997738;28;1252;-60
2021/03/28 11:23:47;;;;;;;;;;;;;;;18.00;60.85;101999.25;5014492;28;1578;-56
2021/03/28 11:26:31;;;;;;;;;;;;;;;18.00;60.16;101993.88;5006158;28;1536;-57
2021/03/28 11:29:07;;;;;;;;;;;;;;;18.00;60.13;101997.41;5000060;28;1574;-57
2021/03/28 11:31:32;;;;;;;;;;;;;;;17.96;60.34;101987.88;5005307;28;1446;-56
2021/03/28 11:33:57;;;;;;;;;;;;;;;17.97;61.07;101991.44;4995201;28;1955;-60
2021/03/28 11:36:25;;;;;;;;;;;;;;;17.99;60.54;101981.47;5003542;28;1434;-60
2021/03/28 11:39:08;;;;;;;;;;;;;;;17.95;60.66;101974.59;5002845;28;1574;-60
2021/03/28 11:41:42;;;;;;;;;;;;;;;17.96;60.53;101977.16;5001089;28;1578;-60
2021/03/28 11:44:19;;;;;;;;;;;;;;;17.96;60.33;101979.00;5002765;28;1542;-60
2021/03/28 11:46:54;;;;;;;;;;;;;;;17.96;61.17;101965.59;5002722;28;1551;-57
2021/03/28 11:49:21;;;;;;;;;;;;;;;17.91;61.42;101967.75;5001544;28;1596;-60
2021/03/28 11:52:07;;;;;;;;;;;;;;;17.94;60.73;101967.53;5004190;28;1406;-61
2021/03/28 11:54:32;;;;;;;;;;;;;;;17.93;60.99;101960.47;5000958;28;1368;-60
2021/03/28 11:57:03;;;;;;;;;;;;;;;17.93;61.34;101955.13;5000712;28;1719;-60
2021/03/28 11:59:37;;;;;;;;;;;;;;;17.94;61.49;101956.81;5004512;28;1609;-57
2021/03/28 12:02:17;;;;;;;;;;;;;;;17.91;60.08;101946.31;4999913;28;1471;-56
2021/03/28 12:04:52;;;;;;;;;;;;;;;17.89;60.63;101957.13;4999261;28;1522;-60
2021/03/28 12:07:29;;;;;;;;;;;;;;;17.91;61.10;101932.94;4999200;28;1524;-60
2021/03/28 12:10:01;;;;;;;;;;;;;;;17.90;60.14;101940.09;5000988;28;1558;-60
2021/03/28 12:12:29;;;;;;;;;;;;;;;17.86;60.14;101939.44;4998112;28;1977;-60
2021/03/28 12:14:54;;;;;;;;;;;;;;;17.85;59.93;101937.72;5001796;28;1542;-60
2021/03/28 12:17:28;;;;;;;;;;;;;;;17.81;61.06;101928.16;5002132;28;1685;-57
2021/03/28 12:20:12;;;;;;;;;;;;;;;17.86;60.87;101933.22;5004593;28;1489;-57
2021/03/28 12:22:37;;;;;;;;;;;;;;;17.85;60.48;101926.19;4997067;28;1645;-60
2021/03/28 12:25:02;;;;;;;;;;;;;;;17.54;60.85;101869.25;5000317;28;1570;-56
2021/03/28 12:27:36;;;;;;;;;;;;;;;17.86;60.82;101923.38;5003210;28;1543;-57
2021/03/28 12:30:03;;;;;;;;;;;;;;;17.90;61.22;101942.78;4997702;28;1641;-60
2021/03/28 12:32:53;;;;;;;;;;;;;;;17.88;60.90;101932.16;4999271;28;1953;-57
2021/03/28 12:35:27;;;;;;;;;;;;;;;17.85;61.14;101923.50;4999044;28;1263;-57
2021/03/28 12:37:53;;;;;;;;;;;;;;;17.86;61.71;101923.38;5000094;28;1712;-57
2021/03/28 12:40:27;;;;;;;;;;;;;;;17.87;61.66;101930.47;4999647;28;1613;-60
2021/03/28 12:42:54;;;;;;;;;;;;;;;17.94;60.90;101917.53;5000677;28;1570;-56
2021/03/28 12:45:24;;;;;;;;;;;;;;;18.02;62.08;101922.38;5006009;28;1530;-56
2021/03/28 12:47:53;;;;;;;;;;;;;;;18.01;61.63;101918.00;5002158;28;1508;-57
2021/03/28 12:50:31;;;;;;;;;;;;;;;17.96;61.54;101920.09;5001398;28;1386;-56
2021/03/28 12:53:05;;;;;;;;;;;;;;;17.94;62.38;101927.38;4999565;28;2209;-57
2021/03/28 12:55:30;;;;;;;;;;;;;;;17.97;61.62;101914.66;5001474;28;1527;-56
2021/03/28 12:58:08;;;;;;;;;;;;;;;18.04;60.12;101910.59;5001055;28;1509;-57
2021/03/28 13:00:39;;;;;;;;;;;;;;;18.07;60.59;101904.22;5001461;28;1545;-67
2021/03/28 13:03:13;;;;;;;;;;;;;;;18.04;60.69;101899.03;4999503;28;1515;-56
2021/03/28 13:05:58;;;;;;;;;;;;;;;18.07;61.30;101894.34;5016252;28;1672;-60
2021/03/28 13:08:23;;;;;;;;;;;;;;;18.15;61.82;101896.53;4997954;28;1542;-60
2021/03/28 13:10:56;;;;;;;;;;;;;;;18.21;60.98;101896.13;5002024;28;1734;-55
2021/03/28 13:13:23;;;;;;;;;;;;;;;18.11;62.03;101889.66;4999845;28;1906;-56
2021/03/28 13:15:48;;;;;;;;;;;;;;;18.07;61.22;101912.25;5000500;28;1538;-61
2021/03/28 13:18:20;;;;;;;;;;;;;;;18.05;62.17;101885.56;5004612;28;1554;-56
2021/03/28 13:20:48;;;;;;;;;;;;;;;18.10;61.42;101898.63;4999945;28;1320;-68
2021/03/28 13:23:22;;;;;;;;;;;;;;;18.11;62.54;101886.97;5001682;28;1511;-59
2021/03/28 13:26:04;;;;;;;;;;;;;;;18.13;62.27;101882.38;4999378;28;1586;-64
2021/03/28 13:28:29;;;;;;;;;;;;;;;18.13;61.95;101870.81;4991054;28;1602;-62
2021/03/28 13:31:12;;;;;;;;;;;;;;;18.18;62.53;101876.72;5003561;28;1441;-57
2021/03/28 13:33:40;;;;;;;;;;;;;;;18.09;63.47;101868.34;5002098;28;1926;-56
2021/03/28 13:36:13;;;;;;;;;;;;;;;18.06;63.47;101875.72;5000244;28;1351;-63